sensor_id;sensor_type;location;lat;lon;timestamp;pressure;altitude;pressure_sealevel;temperature;humidity
33161;BME280;19522;45.656;11.302;2023-02-26T00:01:18;96460.47;;;8.80;86.33
33161;BME280;19522;45.656;11.302;2023-02-26T00:03:46;96438.59;;;8.63;86.28
33161;BME280;19522;45.656;11.302;2023-02-26T00:06:12;96455.25;;;8.60;86.86
33161;BME280;19522;45.656;11.302;2023-02-26T00:08:38;96449.47;;;8.56;86.22
33161;BME280;19522;45.656;11.302;2023-02-26T00:11:06;96442.41;;;8.73;84.66
33161;BME280;19522;45.656;11.302;2023-02-26T00:13:32;96449.09;;;8.71;84.77
33161;BME280;19522;45.656;11.302;2023-02-26T00:15:59;96447.06;;;8.48;85.78
33161;BME280;19522;45.656;11.302;2023-02-26T00:18:25;96467.59;;;8.55;86.45
33161;BME280;19522;45.656;11.302;2023-02-26T00:20:52;96467.00;;;8.53;87.18
33161;BME280;19522;45.656;11.302;2023-02-26T00:23:18;96463.22;;;8.54;87.03
33161;BME280;19522;45.656;11.302;2023-02-26T00:25:45;96467.97;;;8.59;87.06
33161;BME280;19522;45.656;11.302;2023-02-26T00:28:11;96473.53;;;8.64;86.82
33161;BME280;19522;45.656;11.302;2023-02-26T00:30:37;96462.25;;;8.67;86.13
33161;BME280;19522;45.656;11.302;2023-02-26T00:33:03;96477.16;;;8.77;85.16
33161;BME280;19522;45.656;11.302;2023-02-26T00:35:30;96475.25;;;8.77;84.64
33161;BME280;19522;45.656;11.302;2023-02-26T00:38:10;96463.91;;;8.68;84.30
33161;BME280;19522;45.656;11.302;2023-02-26T00:40:43;96478.13;;;8.82;84.05
33161;BME280;19522;45.656;11.302;2023-02-26T00:43:17;96472.25;;;8.85;83.17
33161;BME280;19522;45.656;11.302;2023-02-26T00:45:50;96484.34;;;9.01;82.38
33161;BME280;19522;45.656;11.302;2023-02-26T00:51:02;96480.28;;;8.92;81.75
33161;BME280;19522;45.656;11.302;2023-02-26T00:54:23;96494.13;;;9.02;81.67
33161;BME280;19522;45.656;11.302;2023-02-26T00:56:29;96500.91;;;8.93;81.75
33161;BME280;19522;45.656;11.302;2023-02-26T00:58:55;96492.94;;;8.80;81.83
33161;BME280;19522;45.656;11.302;2023-02-26T01:01:20;96501.50;;;8.95;81.64
33161;BME280;19522;45.656;11.302;2023-02-26T01:03:46;96502.94;;;8.98;81.70
33161;BME280;19522;45.656;11.302;2023-02-26T01:06:18;96504.22;;;8.95;81.71
33161;BME280;19522;45.656;11.302;2023-02-26T01:08:52;96511.22;;;9.03;81.21
33161;BME280;19522;45.656;11.302;2023-02-26T01:11:20;96511.44;;;9.01;80.95
33161;BME280;19522;45.656;11.302;2023-02-26T01:13:45;96507.75;;;8.96;81.69
33161;BME280;19522;45.656;11.302;2023-02-26T01:16:14;96508.94;;;9.00;81.15
33161;BME280;19522;45.656;11.302;2023-02-26T01:19:02;96519.41;;;8.96;81.35
33161;BME280;19522;45.656;11.302;2023-02-26T01:21:36;96516.84;;;9.01;80.77
33161;BME280;19522;45.656;11.302;2023-02-26T01:24:05;96486.44;;;8.81;80.67
33161;BME280;19522;45.656;11.302;2023-02-26T01:26:33;96525.19;;;9.00;81.13
33161;BME280;19522;45.656;11.302;2023-02-26T01:28:58;96516.63;;;9.03;80.82
33161;BME280;19522;45.656;11.302;2023-02-26T01:34:14;96519.78;;;9.00;80.47
33161;BME280;19522;45.656;11.302;2023-02-26T01:36:47;96510.25;;;8.97;80.85
33161;BME280;19522;45.656;11.302;2023-02-26T01:39:25;96516.09;;;8.94;80.54
33161;BME280;19522;45.656;11.302;2023-02-26T01:41:55;96518.78;;;9.13;79.19
33161;BME280;19522;45.656;11.302;2023-02-26T01:44:30;96513.53;;;8.99;80.04
33161;BME280;19522;45.656;11.302;2023-02-26T01:47:09;96510.06;;;8.92;80.69
33161;BME280;19522;45.656;11.302;2023-02-26T01:49:39;96489.63;;;8.78;81.07
33161;BME280;19522;45.656;11.302;2023-02-26T01:52:55;96507.00;;;8.88;81.00
33161;BME280;19522;45.656;11.302;2023-02-26T01:54:51;96537.75;;;8.94;80.41
33161;BME280;19522;45.656;11.302;2023-02-26T01:57:18;96574.50;;;8.33;81.93
33161;BME280;19522;45.656;11.302;2023-02-26T01:59:47;96566.31;;;7.43;80.69
33161;BME280;19522;45.656;11.302;2023-02-26T02:02:18;96599.16;;;7.33;83.09
33161;BME280;19522;45.656;11.302;2023-02-26T02:04:45;96589.94;;;6.82;85.82
33161;BME280;19522;45.656;11.302;2023-02-26T02:07:11;96619.44;;;6.70;86.74
33161;BME280;19522;45.656;11.302;2023-02-26T02:09:37;96625.25;;;6.47;89.17
33161;BME280;19522;45.656;11.302;2023-02-26T02:14:42;96637.41;;;6.03;94.11
33161;BME280;19522;45.656;11.302;2023-02-26T02:23:01;96663.56;;;5.25;99.28
33161;BME280;19522;45.656;11.302;2023-02-26T02:31:51;96700.44;;;5.25;95.34
33161;BME280;19522;45.656;11.302;2023-02-26T02:34:22;96676.03;;;4.98;94.52
33161;BME280;19522;45.656;11.302;2023-02-26T02:36:56;96698.53;;;4.90;96.87
33161;BME280;19522;45.656;11.302;2023-02-26T02:39:28;96669.88;;;4.76;96.49
33161;BME280;19522;45.656;11.302;2023-02-26T02:42:19;96697.91;;;4.66;93.41
33161;BME280;19522;45.656;11.302;2023-02-26T02:44:51;96715.84;;;4.59;95.36
33161;BME280;19522;45.656;11.302;2023-02-26T02:47:19;96692.72;;;4.36;94.58
33161;BME280;19522;45.656;11.302;2023-02-26T02:50:01;96708.13;;;4.28;94.62
33161;BME280;19522;45.656;11.302;2023-02-26T02:52:34;96734.75;;;4.23;94.78
33161;BME280;19522;45.656;11.302;2023-02-26T02:55:27;96738.56;;;4.35;96.02
33161;BME280;19522;45.656;11.302;2023-02-26T02:58:11;96744.78;;;4.35;96.21
33161;BME280;19522;45.656;11.302;2023-02-26T03:00:42;96757.22;;;4.36;94.05
33161;BME280;19522;45.656;11.302;2023-02-26T03:03:16;96750.28;;;4.49;93.23
33161;BME280;19522;45.656;11.302;2023-02-26T03:05:43;96741.31;;;4.20;92.54
33161;BME280;19522;45.656;11.302;2023-02-26T03:08:11;96766.22;;;4.29;92.27
33161;BME280;19522;45.656;11.302;2023-02-26T03:10:38;96767.75;;;4.38;95.49
33161;BME280;19522;45.656;11.302;2023-02-26T03:13:04;96781.50;;;4.28;93.48
33161;BME280;19522;45.656;11.302;2023-02-26T03:15:40;96770.19;;;3.96;94.71
33161;BME280;19522;45.656;11.302;2023-02-26T03:18:35;96752.56;;;4.09;92.67
33161;BME280;19522;45.656;11.302;2023-02-26T03:24:23;96788.03;;;4.41;94.43
33161;BME280;19522;45.656;11.302;2023-02-26T03:26:39;96737.41;;;3.71;91.49
33161;BME280;19522;45.656;11.302;2023-02-26T03:31:59;96770.16;;;4.11;94.39
33161;BME280;19522;45.656;11.302;2023-02-26T03:34:34;96777.25;;;4.19;91.52
33161;BME280;19522;45.656;11.302;2023-02-26T03:37:25;96780.84;;;4.41;92.40
33161;BME280;19522;45.656;11.302;2023-02-26T03:39:55;96782.41;;;4.35;94.20
33161;BME280;19522;45.656;11.302;2023-02-26T03:45:00;96761.53;;;4.16;97.83
33161;BME280;19522;45.656;11.302;2023-02-26T03:47:28;96790.91;;;4.02;97.05
33161;BME280;19522;45.656;11.302;2023-02-26T03:50:06;96780.78;;;4.19;99.60
33161;BME280;19522;45.656;11.302;2023-02-26T03:52:36;96762.69;;;4.28;95.23
33161;BME280;19522;45.656;11.302;2023-02-26T03:55:11;96792.22;;;4.07;97.82
33161;BME280;19522;45.656;11.302;2023-02-26T03:57:37;96799.03;;;4.24;99.53
33161;BME280;19522;45.656;11.302;2023-02-26T04:00:05;96774.53;;;4.34;100.00
33161;BME280;19522;45.656;11.302;2023-02-26T04:02:42;96778.81;;;4.28;100.00
33161;BME280;19522;45.656;11.302;2023-02-26T04:05:14;96786.34;;;4.55;100.00
33161;BME280;19522;45.656;11.302;2023-02-26T04:07:41;96785.88;;;4.51;99.64
33161;BME280;19522;45.656;11.302;2023-02-26T04:10:08;96790.25;;;4.52;98.59
33161;BME280;19522;45.656;11.302;2023-02-26T04:12:35;96794.03;;;4.79;96.02
33161;BME280;19522;45.656;11.302;2023-02-26T04:15:00;96795.06;;;4.78;93.77
33161;BME280;19522;45.656;11.302;2023-02-26T04:17:26;96806.13;;;4.68;95.60
33161;BME280;19522;45.656;11.302;2023-02-26T04:19:52;96800.16;;;4.73;96.10
33161;BME280;19522;45.656;11.302;2023-02-26T04:22:17;96808.16;;;4.66;95.68
33161;BME280;19522;45.656;11.302;2023-02-26T04:24:43;96806.19;;;4.75;95.11
33161;BME280;19522;45.656;11.302;2023-02-26T04:27:08;96807.53;;;4.86;95.44
33161;BME280;19522;45.656;11.302;2023-02-26T04:29:34;96796.59;;;4.88;93.94
33161;BME280;19522;45.656;11.302;2023-02-26T04:31:59;96811.19;;;4.57;93.37
33161;BME280;19522;45.656;11.302;2023-02-26T04:34:25;96788.84;;;4.19;93.95
33161;BME280;19522;45.656;11.302;2023-02-26T04:36:51;96795.16;;;4.48;96.83
33161;BME280;19522;45.656;11.302;2023-02-26T04:39:16;96799.66;;;4.63;92.08
33161;BME280;19522;45.656;11.302;2023-02-26T04:41:42;96803.94;;;4.35;93.70
33161;BME280;19522;45.656;11.302;2023-02-26T04:44:07;96779.47;;;4.15;95.58
33161;BME280;19522;45.656;11.302;2023-02-26T04:46:33;96801.03;;;4.37;94.32
33161;BME280;19522;45.656;11.302;2023-02-26T04:48:58;96802.00;;;4.51;92.86
33161;BME280;19522;45.656;11.302;2023-02-26T04:51:24;96805.03;;;4.63;93.11
33161;BME280;19522;45.656;11.302;2023-02-26T04:53:49;96809.13;;;4.59;93.17
33161;BME280;19522;45.656;11.302;2023-02-26T04:56:15;96807.72;;;4.63;92.15
33161;BME280;19522;45.656;11.302;2023-02-26T04:58:41;96750.66;;;4.24;93.05
33161;BME280;19522;45.656;11.302;2023-02-26T05:01:06;96781.97;;;4.32;92.84
33161;BME280;19522;45.656;11.302;2023-02-26T05:03:32;96806.19;;;4.17;94.15
33161;BME280;19522;45.656;11.302;2023-02-26T05:05:57;96803.69;;;4.00;95.21
33161;BME280;19522;45.656;11.302;2023-02-26T05:08:23;96791.28;;;3.99;95.06
33161;BME280;19522;45.656;11.302;2023-02-26T05:10:50;96797.94;;;4.18;94.92
33161;BME280;19522;45.656;11.302;2023-02-26T05:13:16;96773.13;;;4.01;94.96
33161;BME280;19522;45.656;11.302;2023-02-26T05:15:42;96785.22;;;4.27;94.06
33161;BME280;19522;45.656;11.302;2023-02-26T05:18:07;96778.13;;;4.04;95.35
33161;BME280;19522;45.656;11.302;2023-02-26T05:20:33;96777.38;;;3.96;95.98
33161;BME280;19522;45.656;11.302;2023-02-26T05:22:58;96766.50;;;3.82;96.36
33161;BME280;19522;45.656;11.302;2023-02-26T05:25:24;96783.59;;;3.96;95.76
33161;BME280;19522;45.656;11.302;2023-02-26T05:27:49;96762.94;;;3.97;95.70
33161;BME280;19522;45.656;11.302;2023-02-26T05:30:15;96764.91;;;3.88;94.96
33161;BME280;19522;45.656;11.302;2023-02-26T05:32:42;96757.78;;;3.80;95.84
33161;BME280;19522;45.656;11.302;2023-02-26T05:35:08;96775.25;;;3.91;96.42
33161;BME280;19522;45.656;11.302;2023-02-26T05:37:35;96777.31;;;3.89;97.19
33161;BME280;19522;45.656;11.302;2023-02-26T05:40:00;96772.94;;;4.03;97.44
33161;BME280;19522;45.656;11.302;2023-02-26T05:42:26;96763.56;;;4.14;97.91
33161;BME280;19522;45.656;11.302;2023-02-26T05:44:51;96762.97;;;4.33;95.79
33161;BME280;19522;45.656;11.302;2023-02-26T05:47:17;96758.97;;;4.29;96.67
33161;BME280;19522;45.656;11.302;2023-02-26T05:49:42;96767.69;;;4.31;95.47
33161;BME280;19522;45.656;11.302;2023-02-26T05:52:08;96760.75;;;4.22;95.69
33161;BME280;19522;45.656;11.302;2023-02-26T05:54:33;96785.00;;;4.44;95.47
33161;BME280;19522;45.656;11.302;2023-02-26T05:56:59;96780.44;;;4.44;95.45
33161;BME280;19522;45.656;11.302;2023-02-26T05:59:25;96775.50;;;4.26;95.07
33161;BME280;19522;45.656;11.302;2023-02-26T06:01:50;96774.41;;;4.20;94.42
33161;BME280;19522;45.656;11.302;2023-02-26T06:04:16;96772.16;;;4.24;93.93
33161;BME280;19522;45.656;11.302;2023-02-26T06:06:41;96773.63;;;4.27;93.72
33161;BME280;19522;45.656;11.302;2023-02-26T06:09:07;96770.50;;;4.23;92.95
33161;BME280;19522;45.656;11.302;2023-02-26T06:11:33;96777.97;;;4.28;92.61
33161;BME280;19522;45.656;11.302;2023-02-26T06:13:58;96805.41;;;4.38;92.94
33161;BME280;19522;45.656;11.302;2023-02-26T06:16:24;96806.63;;;4.35;93.21
33161;BME280;19522;45.656;11.302;2023-02-26T06:18:49;96828.28;;;4.34;94.36
33161;BME280;19522;45.656;11.302;2023-02-26T06:21:16;96825.09;;;4.09;93.54
33161;BME280;19522;45.656;11.302;2023-02-26T06:23:42;96837.69;;;3.93;95.98
33161;BME280;19522;45.656;11.302;2023-02-26T06:26:08;96820.09;;;3.76;96.43
33161;BME280;19522;45.656;11.302;2023-02-26T06:28:33;96839.47;;;3.86;97.77
33161;BME280;19522;45.656;11.302;2023-02-26T06:30:59;96852.97;;;3.78;98.08
33161;BME280;19522;45.656;11.302;2023-02-26T06:33:25;96789.97;;;3.20;98.96
33161;BME280;19522;45.656;11.302;2023-02-26T06:35:50;96855.56;;;3.86;100.00
33161;BME280;19522;45.656;11.302;2023-02-26T06:38:17;96841.03;;;3.65;97.63
33161;BME280;19522;45.656;11.302;2023-02-26T06:40:43;96837.66;;;3.48;98.27
33161;BME280;19522;45.656;11.302;2023-02-26T06:43:08;96805.97;;;3.28;97.91
33161;BME280;19522;45.656;11.302;2023-02-26T06:45:34;96856.09;;;3.51;98.37
33161;BME280;19522;45.656;11.302;2023-02-26T06:48:00;96860.69;;;3.42;97.56
33161;BME280;19522;45.656;11.302;2023-02-26T06:50:26;96873.53;;;3.32;97.54
33161;BME280;19522;45.656;11.302;2023-02-26T06:52:52;96887.97;;;3.08;98.72
33161;BME280;19522;45.656;11.302;2023-02-26T06:55:17;96887.50;;;3.04;99.00
33161;BME280;19522;45.656;11.302;2023-02-26T06:57:43;96894.53;;;3.05;100.00
33161;BME280;19522;45.656;11.302;2023-02-26T07:00:09;96914.78;;;3.08;99.00
33161;BME280;19522;45.656;11.302;2023-02-26T07:02:35;96887.88;;;3.01;97.63
33161;BME280;19522;45.656;11.302;2023-02-26T07:05:03;96913.03;;;3.00;96.72
33161;BME280;19522;45.656;11.302;2023-02-26T07:07:29;96926.56;;;3.07;97.40
33161;BME280;19522;45.656;11.302;2023-02-26T07:09:54;96922.22;;;3.06;96.05
33161;BME280;19522;45.656;11.302;2023-02-26T07:12:20;96924.69;;;3.07;94.25
33161;BME280;19522;45.656;11.302;2023-02-26T07:14:45;96919.06;;;3.02;94.30
33161;BME280;19522;45.656;11.302;2023-02-26T07:17:11;96931.69;;;3.17;93.83
33161;BME280;19522;45.656;11.302;2023-02-26T07:19:48;96938.31;;;3.06;92.25
33161;BME280;19522;45.656;11.302;2023-02-26T07:22:15;96947.25;;;3.21;91.97
33161;BME280;19522;45.656;11.302;2023-02-26T07:24:41;96939.06;;;3.15;90.57
33161;BME280;19522;45.656;11.302;2023-02-26T07:27:07;96942.41;;;3.17;89.81
33161;BME280;19522;45.656;11.302;2023-02-26T07:29:33;96965.34;;;3.42;90.27
33161;BME280;19522;45.656;11.302;2023-02-26T07:31:58;96972.47;;;3.58;89.76
33161;BME280;19522;45.656;11.302;2023-02-26T07:34:24;96968.56;;;3.61;88.98
33161;BME280;19522;45.656;11.302;2023-02-26T07:36:49;96963.38;;;3.59;88.90
33161;BME280;19522;45.656;11.302;2023-02-26T07:39:15;96945.22;;;3.47;89.41
33161;BME280;19522;45.656;11.302;2023-02-26T07:41:40;96962.63;;;3.51;85.58
33161;BME280;19522;45.656;11.302;2023-02-26T07:44:06;96952.84;;;3.58;85.40
33161;BME280;19522;45.656;11.302;2023-02-26T07:46:31;96950.59;;;3.47;87.45
33161;BME280;19522;45.656;11.302;2023-02-26T07:48:57;96954.03;;;3.55;88.31
33161;BME280;19522;45.656;11.302;2023-02-26T07:51:22;96963.91;;;3.78;87.53
33161;BME280;19522;45.656;11.302;2023-02-26T07:53:48;96957.91;;;3.91;88.13
33161;BME280;19522;45.656;11.302;2023-02-26T07:56:13;96937.72;;;3.80;85.89
33161;BME280;19522;45.656;11.302;2023-02-26T07:58:39;96969.03;;;3.88;86.05
33161;BME280;19522;45.656;11.302;2023-02-26T08:01:05;96970.06;;;4.02;85.00
33161;BME280;19522;45.656;11.302;2023-02-26T08:03:31;96966.63;;;3.93;83.06
33161;BME280;19522;45.656;11.302;2023-02-26T08:05:56;96959.69;;;3.99;83.13
33161;BME280;19522;45.656;11.302;2023-02-26T08:08:25;96971.56;;;4.04;83.76
33161;BME280;19522;45.656;11.302;2023-02-26T08:10:51;96971.81;;;4.10;83.38
33161;BME280;19522;45.656;11.302;2023-02-26T08:13:17;96965.44;;;4.26;82.13
33161;BME280;19522;45.656;11.302;2023-02-26T08:15:42;96984.63;;;4.52;81.23
33161;BME280;19522;45.656;11.302;2023-02-26T08:18:09;96972.97;;;4.45;80.52
33161;BME280;19522;45.656;11.302;2023-02-26T08:20:35;96977.22;;;4.40;81.81
33161;BME280;19522;45.656;11.302;2023-02-26T08:23:00;96980.94;;;4.39;77.50
33161;BME280;19522;45.656;11.302;2023-02-26T08:25:26;96994.19;;;4.40;75.57
33161;BME280;19522;45.656;11.302;2023-02-26T08:27:52;96990.31;;;4.43;76.00
33161;BME280;19522;45.656;11.302;2023-02-26T08:30:18;96988.19;;;4.53;77.39
33161;BME280;19522;45.656;11.302;2023-02-26T08:32:44;96999.75;;;4.68;76.24
33161;BME280;19522;45.656;11.302;2023-02-26T08:35:10;97008.94;;;4.74;76.30
33161;BME280;19522;45.656;11.302;2023-02-26T08:37:36;96999.28;;;4.80;74.85
33161;BME280;19522;45.656;11.302;2023-02-26T08:40:04;96980.38;;;4.58;74.56
33161;BME280;19522;45.656;11.302;2023-02-26T08:42:30;96974.63;;;4.61;75.34
33161;BME280;19522;45.656;11.302;2023-02-26T08:44:55;97004.94;;;4.85;76.25
33161;BME280;19522;45.656;11.302;2023-02-26T08:47:21;96997.13;;;4.90;75.80
33161;BME280;19522;45.656;11.302;2023-02-26T08:49:47;96988.47;;;5.10;73.88
33161;BME280;19522;45.656;11.302;2023-02-26T08:52:13;96987.81;;;5.08;74.40
33161;BME280;19522;45.656;11.302;2023-02-26T08:54:39;96979.88;;;4.99;73.14
33161;BME280;19522;45.656;11.302;2023-02-26T08:57:05;96977.19;;;4.84;70.02
33161;BME280;19522;45.656;11.302;2023-02-26T08:59:30;96992.00;;;4.95;67.03
33161;BME280;19522;45.656;11.302;2023-02-26T09:01:56;96986.72;;;5.02;69.17
33161;BME280;19522;45.656;11.302;2023-02-26T09:04:21;96995.00;;;5.01;67.79
33161;BME280;19522;45.656;11.302;2023-02-26T09:06:47;96998.97;;;5.05;68.53
33161;BME280;19522;45.656;11.302;2023-02-26T09:09:12;96996.78;;;5.15;67.62
33161;BME280;19522;45.656;11.302;2023-02-26T09:11:38;97008.97;;;5.11;69.92
33161;BME280;19522;45.656;11.302;2023-02-26T09:14:04;97015.84;;;5.13;70.26
33161;BME280;19522;45.656;11.302;2023-02-26T09:16:30;97002.66;;;5.19;67.82
33161;BME280;19522;45.656;11.302;2023-02-26T09:18:56;97004.50;;;5.18;67.54
33161;BME280;19522;45.656;11.302;2023-02-26T09:21:22;97024.91;;;5.27;69.68
33161;BME280;19522;45.656;11.302;2023-02-26T09:23:48;96995.63;;;5.03;65.91
33161;BME280;19522;45.656;11.302;2023-02-26T09:26:13;97028.16;;;5.23;66.25
33161;BME280;19522;45.656;11.302;2023-02-26T09:28:39;96989.53;;;4.79;61.98
33161;BME280;19522;45.656;11.302;2023-02-26T09:31:05;97033.41;;;4.94;62.92
33161;BME280;19522;45.656;11.302;2023-02-26T09:33:34;97041.94;;;4.98;65.43
33161;BME280;19522;45.656;11.302;2023-02-26T09:36:01;97039.06;;;4.99;66.46
33161;BME280;19522;45.656;11.302;2023-02-26T09:38:26;97041.47;;;5.09;66.53
33161;BME280;19522;45.656;11.302;2023-02-26T09:40:57;97041.91;;;5.50;64.90
33161;BME280;19522;45.656;11.302;2023-02-26T09:49:46;97044.97;;;5.61;62.98
33161;BME280;19522;45.656;11.302;2023-02-26T09:54:52;97050.34;;;5.61;60.18
33161;BME280;19522;45.656;11.302;2023-02-26T09:57:35;97053.94;;;5.69;61.10
33161;BME280;19522;45.656;11.302;2023-02-26T10:00:36;97064.78;;;5.75;63.09
33161;BME280;19522;45.656;11.302;2023-02-26T10:08:45;97046.97;;;5.96;59.96
33161;BME280;19522;45.656;11.302;2023-02-26T10:11:41;97057.28;;;6.14;59.30
33161;BME280;19522;45.656;11.302;2023-02-26T10:14:34;97062.03;;;6.12;59.89
33161;BME280;19522;45.656;11.302;2023-02-26T10:17:17;97060.94;;;6.28;58.63
33161;BME280;19522;45.656;11.302;2023-02-26T10:19:47;97069.06;;;6.35;58.56
33161;BME280;19522;45.656;11.302;2023-02-26T10:22:39;97062.44;;;6.37;58.35
33161;BME280;19522;45.656;11.302;2023-02-26T10:25:15;97050.19;;;6.35;58.98
33161;BME280;19522;45.656;11.302;2023-02-26T10:30:39;97047.91;;;6.60;58.78
33161;BME280;19522;45.656;11.302;2023-02-26T10:33:32;97065.97;;;6.95;58.84
33161;BME280;19522;45.656;11.302;2023-02-26T10:36:38;97056.03;;;7.02;54.95
33161;BME280;19522;45.656;11.302;2023-02-26T10:39:04;97071.84;;;7.05;57.84
33161;BME280;19522;45.656;11.302;2023-02-26T10:41:39;97067.69;;;7.09;57.53
33161;BME280;19522;45.656;11.302;2023-02-26T10:44:16;97066.72;;;7.24;56.82
33161;BME280;19522;45.656;11.302;2023-02-26T10:49:51;97072.22;;;7.51;51.91
33161;BME280;19522;45.656;11.302;2023-02-26T10:52:20;97070.81;;;7.55;53.98
33161;BME280;19522;45.656;11.302;2023-02-26T10:57:51;97054.22;;;7.71;51.96
33161;BME280;19522;45.656;11.302;2023-02-26T11:00:20;97047.69;;;7.39;50.95
33161;BME280;19522;45.656;11.302;2023-02-26T11:02:48;97065.09;;;6.94;51.08
33161;BME280;19522;45.656;11.302;2023-02-26T11:05:19;97061.06;;;6.77;49.93
33161;BME280;19522;45.656;11.302;2023-02-26T11:07:47;97072.13;;;6.89;51.04
33161;BME280;19522;45.656;11.302;2023-02-26T11:10:17;97064.72;;;6.62;49.71
33161;BME280;19522;45.656;11.302;2023-02-26T11:12:43;97051.50;;;6.46;50.18
33161;BME280;19522;45.656;11.302;2023-02-26T11:15:17;97062.03;;;6.69;50.31
33161;BME280;19522;45.656;11.302;2023-02-26T11:17:45;97065.97;;;6.95;52.37
33161;BME280;19522;45.656;11.302;2023-02-26T11:20:18;97073.84;;;6.96;50.99
33161;BME280;19522;45.656;11.302;2023-02-26T11:22:49;97066.72;;;6.89;50.83
33161;BME280;19522;45.656;11.302;2023-02-26T11:25:18;97079.50;;;7.08;52.29
33161;BME280;19522;45.656;11.302;2023-02-26T11:27:48;97075.13;;;7.07;51.34
33161;BME280;19522;45.656;11.302;2023-02-26T11:30:19;97076.22;;;7.13;50.04
33161;BME280;19522;45.656;11.302;2023-02-26T11:32:49;97051.38;;;6.54;51.56
33161;BME280;19522;45.656;11.302;2023-02-26T11:35:16;97074.16;;;6.80;51.46
33161;BME280;19522;45.656;11.302;2023-02-26T11:37:53;97063.84;;;6.90;48.11
33161;BME280;19522;45.656;11.302;2023-02-26T11:40:45;97066.63;;;6.68;49.93
33161;BME280;19522;45.656;11.302;2023-02-26T11:43:15;97080.34;;;6.74;49.41
33161;BME280;19522;45.656;11.302;2023-02-26T11:45:44;97069.84;;;6.57;47.78
33161;BME280;19522;45.656;11.302;2023-02-26T11:51:02;97078.03;;;6.42;47.70
33161;BME280;19522;45.656;11.302;2023-02-26T11:53:36;97086.41;;;6.47;46.92
33161;BME280;19522;45.656;11.302;2023-02-26T11:56:13;97083.34;;;6.29;47.70
33161;BME280;19522;45.656;11.302;2023-02-26T11:58:42;97075.25;;;6.29;48.16
33161;BME280;19522;45.656;11.302;2023-02-26T12:01:11;97081.25;;;6.31;49.20
33161;BME280;19522;45.656;11.302;2023-02-26T12:03:39;97034.94;;;5.77;47.69
33161;BME280;19522;45.656;11.302;2023-02-26T12:06:16;97087.22;;;6.19;48.35
33161;BME280;19522;45.656;11.302;2023-02-26T12:08:42;97083.00;;;6.38;49.98
33161;BME280;19522;45.656;11.302;2023-02-26T13:09:37;97113.09;;;6.99;44.93
33161;BME280;19522;45.656;11.302;2023-02-26T13:12:33;97099.41;;;7.00;45.63
33161;BME280;19522;45.656;11.302;2023-02-26T13:20:14;97105.31;;;6.82;45.48
33161;BME280;19522;45.656;11.302;2023-02-26T13:22:45;97111.19;;;6.93;45.67
33161;BME280;19522;45.656;11.302;2023-02-26T13:25:37;97114.88;;;6.85;45.52
33161;BME280;19522;45.656;11.302;2023-02-26T13:30:54;97116.22;;;7.02;45.96
33161;BME280;19522;45.656;11.302;2023-02-26T13:33:23;97116.72;;;7.13;44.50
33161;BME280;19522;45.656;11.302;2023-02-26T13:35:52;97119.06;;;7.23;44.18
33161;BME280;19522;45.656;11.302;2023-02-26T13:38:34;97123.00;;;7.27;44.35
33161;BME280;19522;45.656;11.302;2023-02-26T13:41:11;97138.22;;;7.35;44.63
33161;BME280;19522;45.656;11.302;2023-02-26T13:52:32;97154.50;;;7.48;43.90
33161;BME280;19522;45.656;11.302;2023-02-26T13:55:02;97152.97;;;7.32;44.58
33161;BME280;19522;45.656;11.302;2023-02-26T13:57:52;97160.81;;;7.27;44.25
33161;BME280;19522;45.656;11.302;2023-02-26T14:02:58;97159.94;;;6.84;44.17
33161;BME280;19522;45.656;11.302;2023-02-26T14:05:51;97165.84;;;6.73;43.87
33161;BME280;19522;45.656;11.302;2023-02-26T14:08:26;97160.84;;;6.70;45.85
33161;BME280;19522;45.656;11.302;2023-02-26T14:18:40;97155.06;;;6.73;45.33
33161;BME280;19522;45.656;11.302;2023-02-26T14:23:57;97179.63;;;6.57;45.50
33161;BME280;19522;45.656;11.302;2023-02-26T14:26:29;97166.09;;;6.28;44.62
33161;BME280;19522;45.656;11.302;2023-02-26T14:34:23;97197.16;;;6.24;47.36
33161;BME280;19522;45.656;11.302;2023-02-26T14:36:58;97180.34;;;6.22;47.33
33161;BME280;19522;45.656;11.302;2023-02-26T14:39:48;97201.28;;;6.42;46.78
33161;BME280;19522;45.656;11.302;2023-02-26T14:42:51;97204.72;;;6.57;47.46
33161;BME280;19522;45.656;11.302;2023-02-26T14:45:37;97212.38;;;6.75;49.49
33161;BME280;19522;45.656;11.302;2023-02-26T14:48:14;97207.41;;;6.79;46.15
33161;BME280;19522;45.656;11.302;2023-02-26T14:50:59;97219.94;;;6.86;45.99
33161;BME280;19522;45.656;11.302;2023-02-26T15:07:51;97248.03;;;6.49;47.88
33161;BME280;19522;45.656;11.302;2023-02-26T15:10:35;97258.56;;;6.44;50.47
33161;BME280;19522;45.656;11.302;2023-02-26T15:20:42;97281.50;;;6.03;55.07
33161;BME280;19522;45.656;11.302;2023-02-26T15:23:49;97294.13;;;5.87;56.21
33161;BME280;19522;45.656;11.302;2023-02-26T15:26:26;97307.59;;;5.87;56.73
33161;BME280;19522;45.656;11.302;2023-02-26T15:28:52;97289.50;;;5.66;57.23
33161;BME280;19522;45.656;11.302;2023-02-26T15:31:21;97315.88;;;5.71;58.06
33161;BME280;19522;45.656;11.302;2023-02-26T15:33:55;97314.75;;;5.65;58.90
33161;BME280;19522;45.656;11.302;2023-02-26T15:36:20;97303.31;;;5.48;59.40
33161;BME280;19522;45.656;11.302;2023-02-26T15:38:53;97306.75;;;5.42;59.66
33161;BME280;19522;45.656;11.302;2023-02-26T15:41:19;97314.53;;;5.37;60.07
33161;BME280;19522;45.656;11.302;2023-02-26T15:43:50;97321.19;;;5.26;59.98
33161;BME280;19522;45.656;11.302;2023-02-26T15:46:17;97308.38;;;5.13;59.06
33161;BME280;19522;45.656;11.302;2023-02-26T15:48:45;97308.38;;;5.13;58.70
33161;BME280;19522;45.656;11.302;2023-02-26T15:51:12;97319.13;;;5.13;58.34
33161;BME280;19522;45.656;11.302;2023-02-26T15:53:45;97342.25;;;5.22;58.63
33161;BME280;19522;45.656;11.302;2023-02-26T15:56:35;97333.28;;;5.07;58.77
33161;BME280;19522;45.656;11.302;2023-02-26T15:59:25;97338.69;;;5.07;57.96
33161;BME280;19522;45.656;11.302;2023-02-26T16:01:53;97347.41;;;5.09;58.28
33161;BME280;19522;45.656;11.302;2023-02-26T16:04:20;97350.41;;;5.14;57.40
33161;BME280;19522;45.656;11.302;2023-02-26T16:06:55;97348.25;;;5.09;57.53